Time;durP1;ratioP1;P1;durP2;ratioP2;P2;SDS_P1;SDS_P2;PMS_P1;PMS_P2;Temp;Humidity;BMP_temperature;BMP_pressure;BME280_temperature;BME280_humidity;BME280_pressure;Samples;Min_cycle;Max_cycle;Signal;HPM_P1;HPM_P2
2022/06/30 00:01:39;;;;;;;4.13;2.90;;;18.50;99.90;;;;;;5090709;28;20475;-47
2022/06/30 00:04:06;;;;;;;3.60;3.23;;;18.50;99.90;;;;;;5090730;28;20479;-47
2022/06/30 00:06:33;;;;;;;4.70;3.20;;;18.50;99.90;;;;;;5090551;28;20464;-47
2022/06/30 00:09:02;;;;;;;4.50;2.67;;;18.50;99.90;;;;;;5090809;28;20439;-49
2022/06/30 00:11:29;;;;;;;3.77;3.37;;;18.50;99.90;;;;;;5090142;28;20443;-49
2022/06/30 00:13:57;;;;;;;4.77;4.30;;;18.40;99.90;;;;;;5090643;28;20440;-48
2022/06/30 00:16:24;;;;;;;4.07;2.97;;;18.40;99.90;;;;;;5090475;28;20474;-47
2022/06/30 00:18:51;;;;;;;3.60;3.00;;;18.30;99.90;;;;;;5090061;28;21248;-50
2022/06/30 00:21:18;;;;;;;6.10;3.03;;;18.40;99.90;;;;;;5090177;28;20475;-46
2022/06/30 00:23:45;;;;;;;4.67;3.20;;;18.30;99.90;;;;;;5090337;28;20482;-48
2022/06/30 00:26:13;;;;;;;5.10;3.30;;;18.20;99.90;;;;;;5090153;28;20547;-48
2022/06/30 00:28:40;;;;;;;5.03;3.40;;;18.20;99.90;;;;;;5090242;28;20444;-50
2022/06/30 00:31:07;;;;;;;5.90;2.83;;;18.10;99.90;;;;;;5090266;28;20518;-46
2022/06/30 00:33:34;;;;;;;4.73;2.93;;;18.20;99.90;;;;;;5089763;28;20988;-49
2022/06/30 00:36:01;;;;;;;3.70;3.30;;;18.10;99.90;;;;;;5090207;28;20475;-47
2022/06/30 00:38:28;;;;;;;3.40;3.10;;;18.10;99.90;;;;;;5090137;28;20818;-48
2022/06/30 00:40:55;;;;;;;3.53;3.13;;;18.00;99.90;;;;;;5089977;28;20443;-48
2022/06/30 00:43:23;;;;;;;3.40;2.90;;;18.00;99.90;;;;;;5090125;28;20516;-47
2022/06/30 00:45:51;;;;;;;6.20;3.23;;;18.10;99.90;;;;;;5089859;28;20463;-48
2022/06/30 00:48:19;;;;;;;3.67;3.10;;;18.10;99.90;;;;;;5090231;28;20530;-49
2022/06/30 00:50:46;;;;;;;3.33;2.80;;;18.10;99.90;;;;;;5089921;28;20443;-46
2022/06/30 00:53:13;;;;;;;3.63;3.33;;;18.10;99.90;;;;;;5090123;28;20444;-46
2022/06/30 00:55:40;;;;;;;4.40;2.60;;;17.90;99.90;;;;;;5089945;28;20538;-48
2022/06/30 00:58:09;;;;;;;4.07;2.97;;;18.00;99.90;;;;;;5089843;28;20984;-47
2022/06/30 01:00:39;;;;;;;3.80;2.83;;;18.00;99.90;;;;;;5089852;28;20558;-47
2022/06/30 01:03:08;;;;;;;3.60;2.40;;;18.00;99.90;;;;;;5090005;28;20870;-46
2022/06/30 01:05:35;;;;;;;5.60;3.27;;;18.00;99.90;;;;;;5089850;28;20522;-46
2022/06/30 01:08:03;;;;;;;5.37;3.17;;;18.00;99.90;;;;;;5089916;28;20463;-48
2022/06/30 01:13:15;;;;;;;3.77;2.90;;;18.00;99.90;;;;;;5089761;28;20510;-47
2022/06/30 01:15:43;;;;;;;5.90;3.20;;;18.00;99.90;;;;;;5089701;28;20976;-46
2022/06/30 01:18:10;;;;;;;6.07;3.23;;;17.90;99.90;;;;;;5089715;28;20493;-48
2022/06/30 01:20:38;;;;;;;5.00;3.33;;;17.90;99.90;;;;;;5089186;28;20558;-49
2022/06/30 01:23:06;;;;;;;3.00;2.70;;;17.90;99.90;;;;;;5090012;28;20864;-46
2022/06/30 01:25:35;;;;;;;3.70;2.93;;;17.90;99.90;;;;;;5089669;28;20463;-48
2022/06/30 01:28:02;;;;;;;4.87;3.17;;;17.90;99.90;;;;;;5089462;28;20809;-48
2022/06/30 01:30:29;;;;;;;4.33;3.00;;;17.90;99.90;;;;;;5089392;28;20509;-48
2022/06/30 01:32:56;;;;;;;3.47;2.87;;;17.90;99.90;;;;;;5090155;28;20439;-48
2022/06/30 01:35:23;;;;;;;3.63;2.87;;;17.90;99.90;;;;;;5089058;28;20459;-47
2022/06/30 01:37:52;;;;;;;5.10;2.80;;;18.00;99.90;;;;;;5089805;28;20474;-50
2022/06/30 01:40:22;;;;;;;5.40;3.10;;;18.00;99.90;;;;;;5089280;28;20924;-47
2022/06/30 01:42:49;;;;;;;3.70;2.77;;;18.00;99.90;;;;;;5089764;28;20518;-46
2022/06/30 01:45:17;;;;;;;3.97;3.00;;;17.80;99.90;;;;;;5092249;28;20439;-49
2022/06/30 01:47:44;;;;;;;5.13;3.30;;;17.80;99.90;;;;;;5093779;28;20471;-47
2022/06/30 01:50:13;;;;;;;5.03;3.73;;;17.80;99.90;;;;;;5093520;28;20920;-47
2022/06/30 01:52:40;;;;;;;3.13;2.83;;;17.80;99.90;;;;;;5093463;28;20443;-47
2022/06/30 01:55:08;;;;;;;4.90;3.63;;;17.80;99.90;;;;;;5093224;28;20471;-49
2022/06/30 01:57:37;;;;;;;5.50;3.80;;;17.30;99.90;;;;;;5093213;28;20496;-46
2022/06/30 02:00:06;;;;;;;4.10;3.03;;;17.40;99.90;;;;;;5092884;28;20485;-47
2022/06/30 02:02:33;;;;;;;4.43;4.00;;;17.50;99.90;;;;;;5093038;28;20431;-47
2022/06/30 02:05:00;;;;;;;3.90;2.80;;;17.60;99.90;;;;;;5093387;28;20431;-48
2022/06/30 02:07:28;;;;;;;5.20;3.60;;;17.70;99.90;;;;;;5093190;28;20528;-47
2022/06/30 02:09:55;;;;;;;4.83;3.30;;;17.80;99.90;;;;;;5092890;28;20444;-47
2022/06/30 02:15:11;;;;;;;6.10;4.07;;;17.80;99.90;;;;;;5092871;28;20468;-50
2022/06/30 02:17:38;;;;;;;4.80;3.00;;;17.70;99.90;;;;;;5092942;28;20447;-47
2022/06/30 02:20:07;;;;;;;5.17;2.80;;;17.70;99.90;;;;;;5092360;28;20562;-47
2022/06/30 02:22:34;;;;;;;4.63;3.30;;;17.60;99.90;;;;;;5092718;28;20454;-46
2022/06/30 02:25:01;;;;;;;4.13;3.00;;;17.60;99.90;;;;;;5092802;28;20497;-49
2022/06/30 02:27:28;;;;;;;4.90;3.27;;;17.50;99.90;;;;;;5092633;28;20443;-47
2022/06/30 02:29:55;;;;;;;3.60;3.30;;;17.50;99.90;;;;;;5092378;28;20472;-47
2022/06/30 02:32:23;;;;;;;3.17;2.77;;;17.50;99.90;;;;;;5092358;28;21009;-48
2022/06/30 02:34:51;;;;;;;4.50;2.93;;;17.60;99.90;;;;;;5092362;28;20800;-47
2022/06/30 02:37:19;;;;;;;5.23;2.77;;;17.60;99.90;;;;;;5092305;28;20499;-47
2022/06/30 02:39:46;;;;;;;4.70;3.10;;;17.50;99.90;;;;;;5091927;28;20515;-48
2022/06/30 02:42:13;;;;;;;6.80;2.70;;;17.50;99.90;;;;;;5092496;28;20528;-46
2022/06/30 02:44:40;;;;;;;4.77;3.50;;;17.50;99.90;;;;;;5092261;28;20967;-47
2022/06/30 02:47:07;;;;;;;3.80;3.10;;;17.50;99.90;;;;;;5092229;28;20840;-47
2022/06/30 02:49:37;;;;;;;6.90;3.40;;;17.50;99.90;;;;;;5091803;28;20501;-48
2022/06/30 02:52:04;;;;;;;3.33;2.60;;;17.50;99.90;;;;;;5092075;28;20844;-48
2022/06/30 02:54:31;;;;;;;3.83;3.43;;;17.50;99.90;;;;;;5092348;28;20530;-48
2022/06/30 02:56:58;;;;;;;5.00;3.80;;;17.50;99.90;;;;;;5092157;28;20547;-47
2022/06/30 02:59:25;;;;;;;3.70;2.80;;;17.50;99.90;;;;;;5091725;28;20475;-48
2022/06/30 03:01:52;;;;;;;4.00;3.10;;;17.50;99.90;;;;;;5092101;28;20444;-48
2022/06/30 03:04:21;;;;;;;3.63;2.90;;;17.40;99.90;;;;;;5091861;28;20469;-47
2022/06/30 03:06:49;;;;;;;4.63;3.33;;;17.40;99.90;;;;;;5091734;28;21067;-48
2022/06/30 03:09:16;;;;;;;3.57;3.10;;;17.30;99.90;;;;;;5091503;28;20439;-46
2022/06/30 03:11:43;;;;;;;6.60;3.30;;;17.30;99.90;;;;;;5091892;28;20582;-46
2022/06/30 03:14:10;;;;;;;3.50;2.93;;;17.40;99.90;;;;;;5091715;28;20443;-48
2022/06/30 03:16:37;;;;;;;3.87;3.07;;;17.40;99.90;;;;;;5091592;28;20460;-47
2022/06/30 03:19:04;;;;;;;3.73;3.20;;;17.40;99.90;;;;;;5091140;28;20444;-51
2022/06/30 03:21:31;;;;;;;5.30;3.30;;;17.40;99.90;;;;;;5091541;28;20462;-46
2022/06/30 03:23:59;;;;;;;4.10;3.03;;;17.40;99.90;;;;;;5091374;28;20443;-48
2022/06/30 03:26:26;;;;;;;6.10;3.63;;;17.40;99.90;;;;;;5091371;28;20991;-46
2022/06/30 03:28:53;;;;;;;6.50;3.17;;;17.30;99.90;;;;;;5091340;28;20519;-50
2022/06/30 03:31:20;;;;;;;5.47;2.90;;;17.30;99.90;;;;;;5091281;28;20936;-47
2022/06/30 03:33:47;;;;;;;4.67;3.03;;;17.20;99.90;;;;;;5091172;28;20436;-49
2022/06/30 03:36:14;;;;;;;5.23;3.40;;;17.20;99.90;;;;;;5148077;22;20957;-47
2022/06/30 03:38:41;;;;;;;5.37;3.30;;;17.10;99.90;;;;;;5090875;28;20440;-46
2022/06/30 03:41:09;;;;;;;6.17;3.60;;;17.20;99.90;;;;;;5090800;28;20567;-48
2022/06/30 03:43:36;;;;;;;5.90;3.80;;;17.00;99.90;;;;;;5091054;28;20842;-47
2022/06/30 03:46:03;;;;;;;4.80;3.27;;;17.10;99.90;;;;;;5091038;28;20619;-47
2022/06/30 03:48:30;;;;;;;6.23;3.50;;;17.10;99.90;;;;;;5090974;28;20482;-50
2022/06/30 03:50:56;;;;;;;6.03;3.60;;;17.00;99.90;;;;;;5091014;28;20435;-46
2022/06/30 03:53:23;;;;;;;3.73;3.00;;;16.90;99.90;;;;;;5090932;28;20935;-47
2022/06/30 03:55:51;;;;;;;5.20;3.10;;;16.90;99.90;;;;;;5090830;28;20516;-48
2022/06/30 03:58:19;;;;;;;4.20;3.17;;;16.90;99.90;;;;;;5090839;28;20920;-47
2022/06/30 04:00:46;;;;;;;6.80;3.00;;;17.00;99.90;;;;;;5090471;28;20554;-47
2022/06/30 04:03:13;;;;;;;6.17;3.43;;;17.00;99.90;;;;;;5090917;28;20519;-48
2022/06/30 04:05:41;;;;;;;4.83;3.47;;;17.10;99.90;;;;;;5090648;28;20447;-46
2022/06/30 04:08:08;;;;;;;4.13;2.70;;;17.20;99.90;;;;;;5090175;28;20943;-47
2022/06/30 04:10:35;;;;;;;5.30;3.80;;;17.20;99.90;;;;;;5090252;28;20968;-50
2022/06/30 04:13:02;;;;;;;3.17;2.87;;;17.20;99.90;;;;;;5090697;28;20440;-46
2022/06/30 04:15:31;;;;;;;5.30;4.20;;;17.10;99.90;;;;;;5090644;28;20865;-50
2022/06/30 04:17:58;;;;;;;4.27;3.57;;;16.90;99.90;;;;;;5090424;28;20463;-47
2022/06/30 04:20:25;;;;;;;5.30;4.63;;;17.00;99.90;;;;;;5090008;28;20847;-46
2022/06/30 04:22:53;;;;;;;5.47;3.30;;;17.00;99.90;;;;;;5090522;28;20461;-48
2022/06/30 04:25:21;;;;;;;4.60;3.37;;;17.00;99.90;;;;;;5090421;28;20462;-47
2022/06/30 04:27:51;;;;;;;4.70;3.13;;;17.10;99.90;;;;;;5090337;28;20440;-48
2022/06/30 04:32:37;;;;;;;4.90;3.43;;;17.10;99.90;;;;;;5089909;28;20471;-46
2022/06/30 04:33:08;;;;;;;5.03;3.50;;;17.00;99.90;;;;;;5090230;28;20439;-47
2022/06/30 04:35:36;;;;;;;6.17;3.20;;;17.00;99.90;;;;;;5090349;28;20812;-48
2022/06/30 04:38:04;;;;;;;5.93;3.40;;;17.10;99.90;;;;;;5090370;28;20630;-46
2022/06/30 04:43:15;;;;;;;5.87;3.83;;;17.20;99.90;;;;;;5058573;28;20427;-47
2022/06/30 04:45:42;;;;;;;6.00;3.43;;;17.20;99.90;;;;;;5090037;28;20435;-47
2022/06/30 04:48:11;;;;;;;5.23;3.60;;;17.30;99.90;;;;;;5090221;28;20443;-48
2022/06/30 04:50:38;;;;;;;4.63;3.07;;;17.30;99.90;;;;;;5089941;28;20470;-46
2022/06/30 04:53:05;;;;;;;3.97;3.00;;;17.30;99.90;;;;;;5090072;28;20435;-47
2022/06/30 04:55:32;;;;;;;4.37;3.10;;;17.30;99.90;;;;;;5089968;28;20831;-49
2022/06/30 04:57:59;;;;;;;7.40;3.40;;;17.30;99.90;;;;;;5089963;28;20471;-46
2022/06/30 05:00:26;;;;;;;5.83;3.17;;;17.30;99.90;;;;;;5089502;28;20566;-47
2022/06/30 05:02:53;;;;;;;4.97;3.63;;;17.30;99.90;;;;;;5089856;28;20482;-47
2022/06/30 05:05:21;;;;;;;9.63;3.67;;;17.30;99.90;;;;;;5090009;28;20450;-47
2022/06/30 05:07:48;;;;;;;4.03;3.17;;;17.30;99.90;;;;;;5089761;28;20443;-48
2022/06/30 05:10:15;;;;;;;3.70;3.40;;;17.30;99.90;;;;;;5090008;28;20771;-48
2022/06/30 05:12:42;;;;;;;5.60;3.83;;;17.30;99.90;;;;;;5089339;28;20534;-47
2022/06/30 05:15:09;;;;;;;3.20;2.90;;;17.20;99.90;;;;;;5089963;28;20443;-48
2022/06/30 05:17:36;;;;;;;4.27;3.43;;;17.20;99.90;;;;;;5089612;28;21033;-47
2022/06/30 05:20:04;;;;;;;5.03;3.50;;;17.30;99.90;;;;;;5091815;28;20562;-48
2022/06/30 05:22:33;;;;;;;4.10;3.70;;;17.20;99.90;;;;;;5093743;28;20447;-48
2022/06/30 05:27:46;;;;;;;5.30;2.83;;;17.30;99.90;;;;;;5093768;28;20555;-50
2022/06/30 05:30:13;;;;;;;6.37;3.20;;;17.30;99.90;;;;;;5093259;28;20446;-46
2022/06/30 05:32:40;;;;;;;4.47;3.70;;;17.20;99.90;;;;;;5093874;28;20474;-48
2022/06/30 05:35:09;;;;;;;5.83;3.97;;;17.00;99.90;;;;;;5093413;28;20511;-48
2022/06/30 05:37:37;;;;;;;5.23;4.07;;;16.90;99.90;;;;;;5093286;28;20471;-48
2022/06/30 05:40:05;;;;;;;6.40;4.00;;;16.80;99.90;;;;;;5093406;28;20468;-46
2022/06/30 05:42:32;;;;;;;4.73;4.23;;;16.60;99.90;;;;;;5093638;28;20439;-46
2022/06/30 05:44:59;;;;;;;5.17;3.57;;;16.50;99.90;;;;;;5093526;28;20531;-47
2022/06/30 05:47:26;;;;;;;5.03;3.40;;;16.40;99.90;;;;;;5093391;28;20463;-46
2022/06/30 05:49:53;;;;;;;3.80;3.50;;;16.40;99.90;;;;;;5092988;28;20497;-48
2022/06/30 05:52:19;;;;;;;4.90;3.53;;;16.50;99.90;;;;;;5093494;28;20467;-48
2022/06/30 05:54:48;;;;;;;4.00;3.60;;;16.60;99.90;;;;;;5093406;28;20529;-47
2022/06/30 05:57:15;;;;;;;4.00;3.30;;;16.70;99.90;;;;;;5093547;28;20456;-46
2022/06/30 05:59:42;;;;;;;4.67;3.33;;;16.80;99.90;;;;;;5093001;28;20447;-48
2022/06/30 06:02:09;;;;;;;3.53;3.03;;;16.80;99.90;;;;;;5093169;28;20514;-47
2022/06/30 06:04:36;;;;;;;3.80;3.10;;;16.80;99.90;;;;;;5092972;28;20478;-48
2022/06/30 06:07:03;;;;;;;3.80;3.40;;;16.90;99.90;;;;;;5093181;28;20509;-47
2022/06/30 06:09:30;;;;;;;5.30;3.40;;;17.40;99.90;;;;;;5092664;28;20890;-48
2022/06/30 06:11:59;;;;;;;4.67;3.50;;;18.10;99.90;;;;;;5092740;28;20444;-47
2022/06/30 06:14:26;;;;;;;4.50;2.83;;;18.80;99.90;;;;;;5092942;28;20439;-47
2022/06/30 06:16:53;;;;;;;4.33;3.37;;;19.60;99.90;;;;;;5092681;28;20463;-50
2022/06/30 06:19:21;;;;;;;3.70;3.00;;;20.30;99.90;;;;;;5092538;28;20876;-47
2022/06/30 06:21:48;;;;;;;3.57;3.17;;;20.70;99.90;;;;;;5092314;28;20987;-47
2022/06/30 06:24:16;;;;;;;4.30;2.20;;;21.00;99.90;;;;;;5092931;28;20496;-48
2022/06/30 06:26:43;;;;;;;4.87;3.07;;;21.10;99.90;;;;;;5092574;28;20547;-47
2022/06/30 06:29:14;;;;;;;5.43;2.87;;;21.00;99.90;;;;;;5092741;28;20443;-47
2022/06/30 06:31:42;;;;;;;4.20;3.53;;;20.90;99.90;;;;;;5092264;28;20462;-48
2022/06/30 06:34:09;;;;;;;5.10;3.23;;;20.90;99.90;;;;;;5092449;28;20533;-47
2022/06/30 06:36:36;;;;;;;3.10;2.80;;;20.80;99.90;;;;;;5092483;28;20925;-49
2022/06/30 06:39:04;;;;;;;8.63;3.30;;;20.80;99.90;;;;;;5092226;28;20526;-47
2022/06/30 06:41:31;;;;;;;5.13;3.10;;;20.70;99.90;;;;;;5092280;28;20563;-48
2022/06/30 06:43:58;;;;;;;4.77;3.30;;;20.70;99.90;;;;;;5092763;28;20450;-49
2022/06/30 06:46:29;;;;;;;4.30;3.23;;;20.70;99.90;;;;;;5092248;28;20996;-50
2022/06/30 06:48:59;;;;;;;9.17;4.13;;;20.70;99.90;;;;;;5092158;28;20629;-47
2022/06/30 06:51:26;;;;;;;4.33;3.27;;;20.70;99.90;;;;;;5092294;28;20478;-47
2022/06/30 06:53:53;;;;;;;5.13;3.40;;;20.70;99.90;;;;;;5092093;28;21019;-48
2022/06/30 06:56:20;;;;;;;4.70;3.03;;;20.70;99.90;;;;;;5092000;28;20576;-47
2022/06/30 06:58:47;;;;;;;5.00;3.63;;;20.70;99.90;;;;;;5092268;28;20439;-47
2022/06/30 07:01:14;;;;;;;5.23;2.70;;;20.80;99.90;;;;;;5092076;28;20482;-47
2022/06/30 07:03:42;;;;;;;4.77;3.50;;;20.80;99.90;;;;;;5092043;28;20526;-48
2022/06/30 07:06:10;;;;;;;5.50;3.30;;;20.80;99.90;;;;;;5091700;28;20824;-48
2022/06/30 07:08:37;;;;;;;4.40;2.77;;;20.80;99.90;;;;;;5091775;28;20476;-48
2022/06/30 07:11:05;;;;;;;5.70;4.17;;;20.80;99.90;;;;;;5091304;28;20465;-48
2022/06/30 07:13:32;;;;;;;3.90;3.50;;;20.80;99.90;;;;;;5091751;28;20458;-49
2022/06/30 07:16:00;;;;;;;4.83;3.30;;;20.80;99.90;;;;;;5091878;28;20501;-47
2022/06/30 07:18:28;;;;;;;4.30;3.90;;;21.00;99.90;;;;;;5091630;28;20448;-47
2022/06/30 07:20:56;;;;;;;3.83;2.50;;;21.20;99.90;;;;;;5091312;28;20480;-49
2022/06/30 07:23:23;;;;;;;5.60;3.70;;;21.40;99.90;;;;;;5091638;28;20447;-50
2022/06/30 07:25:50;;;;;;;4.40;2.90;;;21.70;99.90;;;;;;5091878;28;20491;-49
2022/06/30 07:28:17;;;;;;;4.40;2.57;;;21.80;99.90;;;;;;5091406;28;20883;-49
2022/06/30 07:30:44;;;;;;;6.67;2.67;;;22.00;99.90;;;;;;5091495;28;20506;-49
2022/06/30 07:33:11;;;;;;;4.60;3.43;;;22.30;99.90;;;;;;5091663;28;20431;-49
2022/06/30 07:35:38;;;;;;;4.50;3.00;;;22.50;99.90;;;;;;5090737;28;20439;-50
2022/06/30 07:38:06;;;;;;;4.07;2.70;;;22.80;99.90;;;;;;5091260;28;20447;-47
2022/06/30 07:40:33;;;;;;;4.57;2.67;;;22.70;99.90;;;;;;5091114;28;20879;-49
2022/06/30 07:43:00;;;;;;;4.90;3.13;;;22.80;99.90;;;;;;5090510;28;20446;-47
2022/06/30 07:45:27;;;;;;;3.70;3.10;;;22.60;99.90;;;;;;5091131;28;20487;-49
2022/06/30 07:47:54;;;;;;;7.67;3.50;;;22.60;99.90;;;;;;5091079;28;20454;-48
2022/06/30 07:50:21;;;;;;;5.37;3.40;;;22.60;99.90;;;;;;5090632;28;20993;-49
2022/06/30 07:52:48;;;;;;;7.53;2.77;;;22.30;99.90;;;;;;5090941;28;20928;-47
2022/06/30 07:55:17;;;;;;;6.17;3.37;;;22.20;99.90;;;;;;5090944;28;20440;-48
2022/06/30 07:57:46;;;;;;;4.60;3.67;;;22.20;99.90;;;;;;5090850;28;20464;-49
2022/06/30 08:00:15;;;;;;;5.73;3.27;;;22.30;99.90;;;;;;5090685;28;20459;-49
2022/06/30 08:02:42;;;;;;;7.73;3.57;;;22.20;99.90;;;;;;5090604;28;20562;-48
2022/06/30 08:05:09;;;;;;;3.80;3.17;;;22.30;99.90;;;;;;5090996;28;20443;-49
2022/06/30 08:07:37;;;;;;;4.10;3.00;;;22.20;99.90;;;;;;5090755;28;20451;-47
2022/06/30 08:10:05;;;;;;;5.83;3.83;;;22.00;99.90;;;;;;5090738;28;20444;-48
2022/06/30 08:12:34;;;;;;;6.67;3.30;;;22.00;99.90;;;;;;5090588;28;20436;-47
2022/06/30 08:15:01;;;;;;;5.10;3.70;;;22.00;99.90;;;;;;5090564;28;20517;-47
2022/06/30 08:17:29;;;;;;;5.43;3.57;;;22.10;99.90;;;;;;5090700;28;20495;-47
2022/06/30 08:19:56;;;;;;;7.67;4.13;;;22.30;99.90;;;;;;5089926;28;21038;-49
2022/06/30 08:22:24;;;;;;;6.70;3.87;;;22.30;99.90;;;;;;5090333;28;21021;-48
2022/06/30 08:24:51;;;;;;;5.10;3.33;;;22.40;99.90;;;;;;5090530;28;20479;-52
2022/06/30 08:27:18;;;;;;;4.07;3.23;;;22.40;99.90;;;;;;5090456;28;20542;-47
2022/06/30 08:29:46;;;;;;;4.50;3.33;;;22.50;99.90;;;;;;5090082;28;20531;-48
2022/06/30 08:32:13;;;;;;;5.17;4.00;;;22.60;99.90;;;;;;5090275;28;20431;-47
2022/06/30 08:34:41;;;;;;;5.87;4.40;;;22.60;99.90;;;;;;5090184;28;20443;-48
2022/06/30 08:37:09;;;;;;;5.40;3.30;;;22.60;99.90;;;;;;5090135;28;20863;-48
2022/06/30 08:42:21;;;;;;;5.27;3.90;;;22.60;99.90;;;;;;5090171;28;20813;-47
2022/06/30 08:45:13;;;;;;;5.70;3.80;;;22.50;99.90;;;;;;5090237;28;20504;-47
2022/06/30 08:47:38;;;;;;;6.80;4.50;;;22.50;99.90;;;;;;5089823;28;20458;-47
2022/06/30 08:50:08;;;;;;;4.30;3.90;;;22.40;99.90;;;;;;5089689;28;20448;-47
2022/06/30 08:52:46;;;;;;;3.77;3.47;;;22.40;99.90;;;;;;5090065;28;20446;-47
2022/06/30 08:55:15;;;;;;;5.63;3.87;;;22.60;99.90;;;;;;5090443;28;20478;-48
2022/06/30 08:57:43;;;;;;;3.80;3.33;;;22.60;99.90;;;;;;5089949;28;20455;-48
2022/06/30 09:00:13;;;;;;;6.73;4.43;;;22.70;99.90;;;;;;5089723;28;20439;-48
2022/06/30 09:02:40;;;;;;;6.60;4.97;;;22.90;99.90;;;;;;5089754;28;20860;-49
2022/06/30 09:05:08;;;;;;;4.43;3.67;;;23.00;99.90;;;;;;5090089;28;20505;-51
2022/06/30 09:07:35;;;;;;;5.30;4.23;;;23.00;99.90;;;;;;5090163;28;20882;-49
2022/06/30 09:10:02;;;;;;;7.70;3.90;;;22.90;99.90;;;;;;5089712;28;20877;-47
2022/06/30 09:12:29;;;;;;;5.63;3.63;;;22.90;99.90;;;;;;5089472;28;20469;-49
2022/06/30 09:14:56;;;;;;;4.93;4.33;;;23.00;99.90;;;;;;5089905;28;20563;-48
2022/06/30 09:17:26;;;;;;;6.50;4.03;;;23.10;99.90;;;;;;5089878;28;20538;-49
2022/06/30 09:19:55;;;;;;;5.93;3.70;;;23.30;99.90;;;;;;5089357;28;20544;-48
2022/06/30 09:22:26;;;;;;;3.60;3.03;;;23.50;99.90;;;;;;5089732;28;20506;-47
2022/06/30 09:24:58;;;;;;;4.30;3.90;;;23.60;99.90;;;;;;5089901;28;20522;-47
2022/06/30 09:27:29;;;;;;;5.03;3.20;;;23.70;99.90;;;;;;5089587;28;20979;-48
2022/06/30 09:30:00;;;;;;;4.10;3.13;;;23.80;99.90;;;;;;5089725;28;20959;-47
2022/06/30 09:32:28;;;;;;;4.90;3.50;;;24.00;99.90;;;;;;5089612;28;20936;-50
2022/06/30 09:35:09;;;;;;;4.57;3.50;;;24.10;99.90;;;;;;5089631;28;20455;-49
2022/06/30 09:37:37;;;;;;;7.80;3.60;;;24.20;99.90;;;;;;5147751;22;20486;-47
2022/06/30 09:40:05;;;;;;;3.23;2.93;;;24.30;99.90;;;;;;5089048;28;20494;-49
2022/06/30 09:42:43;;;;;;;5.67;3.30;;;24.30;99.90;;;;;;5089582;28;20513;-47
2022/06/30 09:45:12;;;;;;;3.90;3.50;;;24.30;99.90;;;;;;5089662;28;20800;-47
2022/06/30 09:47:53;;;;;;;6.20;2.90;;;24.20;99.90;;;;;;5089620;28;20827;-47
2022/06/30 09:50:20;;;;;;;7.40;3.00;;;24.30;99.90;;;;;;5089429;28;20486;-48
2022/06/30 09:53:04;;;;;;;3.67;3.13;;;24.40;99.90;;;;;;5089441;28;20432;-48
2022/06/30 09:55:38;;;;;;;4.80;3.60;;;24.50;99.90;;;;;;5089649;28;20475;-48
2022/06/30 09:58:05;;;;;;;3.73;3.30;;;24.50;99.90;;;;;;5089456;28;20454;-48
2022/06/30 10:00:44;;;;;;;5.43;4.40;;;24.50;99.90;;;;;;5089242;28;20496;-48
2022/06/30 10:03:12;;;;;;;5.20;3.47;;;24.40;99.90;;;;;;5089240;28;20471;-51
2022/06/30 10:05:43;;;;;;;4.27;2.93;;;24.60;99.90;;;;;;5090889;28;20547;-50
2022/06/30 10:08:11;;;;;;;5.80;3.50;;;24.70;99.90;;;;;;5092977;28;20550;-47
2022/06/30 10:10:38;;;;;;;5.00;3.37;;;24.80;99.90;;;;;;5092557;28;20442;-53
2022/06/30 10:13:07;;;;;;;4.20;3.47;;;24.90;99.90;;;;;;5093298;28;20852;-53
2022/06/30 10:15:37;;;;;;;3.80;2.80;;;24.80;99.90;;;;;;5093379;28;20522;-50
2022/06/30 10:18:08;;;;;;;6.37;3.40;;;24.80;99.90;;;;;;5092912;28;20840;-48
2022/06/30 10:20:38;;;;;;;6.23;3.50;;;24.90;99.90;;;;;;5092613;28;20439;-47
2022/06/30 10:23:06;;;;;;;3.50;3.20;;;25.00;99.90;;;;;;5092781;28;20472;-48
2022/06/30 10:25:34;;;;;;;6.30;3.70;;;25.10;99.90;;;;;;5093124;28;20470;-49
2022/06/30 10:28:02;;;;;;;4.37;3.20;;;25.00;99.90;;;;;;5092775;28;20801;-48
2022/06/30 10:30:43;;;;;;;5.27;3.50;;;25.10;99.90;;;;;;5092507;28;20940;-49
2022/06/30 10:33:15;;;;;;;5.33;3.27;;;25.20;99.90;;;;;;5092743;28;20443;-47
2022/06/30 10:35:47;;;;;;;3.67;3.20;;;25.20;99.90;;;;;;5093287;28;20446;-47
2022/06/30 10:38:24;;;;;;;4.37;3.73;;;25.20;99.90;;;;;;5092487;28;20520;-48
2022/06/30 10:40:59;;;;;;;6.07;4.10;;;25.20;99.90;;;;;;5092476;28;20469;-48
2022/06/30 10:43:26;;;;;;;3.57;3.17;;;25.40;99.90;;;;;;5092478;28;20506;-47
2022/06/30 10:46:01;;;;;;;3.63;2.90;;;25.40;99.90;;;;;;5092296;28;20475;-48
2022/06/30 10:48:29;;;;;;;4.30;3.30;;;25.40;99.90;;;;;;5092411;28;20442;-49
2022/06/30 10:50:58;;;;;;;6.37;4.30;;;25.40;99.90;;;;;;5092470;28;20763;-49
2022/06/30 10:53:51;;;;;;;5.73;3.10;;;25.40;99.90;;;;;;5092565;28;20811;-48
2022/06/30 10:56:19;;;;;;;3.40;3.07;;;25.40;99.90;;;;;;5092245;28;20521;-52
2022/06/30 10:59:11;;;;;;;7.57;3.97;;;25.30;99.90;;;;;;5092069;28;20512;-51
2022/06/30 11:01:40;;;;;;;5.63;3.97;;;25.40;99.90;;;;;;5072485;28;20544;-52
2022/06/30 11:04:11;;;;;;;4.40;3.80;;;25.40;99.90;;;;;;5092184;28;20435;-49
2022/06/30 11:07:01;;;;;;;5.03;3.83;;;25.50;99.90;;;;;;5091891;28;20490;-48
2022/06/30 11:10:07;;;;;;;5.50;3.47;;;25.60;99.90;;;;;;5091890;28;20444;-50
2022/06/30 11:12:57;;;;;;;4.90;3.80;;;25.60;99.90;;;;;;5091459;28;20944;-49
2022/06/30 11:15:57;;;;;;;4.53;4.00;;;25.50;99.90;;;;;;5092006;28;20479;-49
2022/06/30 11:18:26;;;;;;;7.73;4.10;;;25.30;99.90;;;;;;5091047;28;20866;-49
2022/06/30 11:20:54;;;;;;;6.20;5.60;;;25.40;99.90;;;;;;5091276;28;20471;-47
2022/06/30 11:23:23;;;;;;;6.50;3.63;;;25.40;99.90;;;;;;5091542;28;20503;-48
2022/06/30 11:28:39;;;;;;;3.83;3.47;;;25.50;99.90;;;;;;5091763;28;20498;-50
2022/06/30 11:31:22;;;;;;;4.67;4.27;;;25.60;99.90;;;;;;5092000;28;20471;-49
2022/06/30 11:33:54;;;;;;;3.83;3.43;;;25.80;99.90;;;;;;5091351;28;20530;-48
2022/06/30 11:36:21;;;;;;;3.73;3.20;;;25.80;99.90;;;;;;5091316;28;20510;-48
2022/06/30 11:38:55;;;;;;;4.33;3.50;;;25.90;99.90;;;;;;5091075;28;20497;-49
2022/06/30 11:44:08;;;;;;;4.53;3.27;;;25.90;99.90;;;;;;5091245;28;20418;-47
2022/06/30 11:46:51;;;;;;;4.20;3.47;;;26.00;99.90;;;;;;5091014;28;21025;-47
2022/06/30 11:49:19;;;;;;;4.87;3.77;;;26.00;99.90;;;;;;5090935;28;20463;-47
2022/06/30 11:51:46;;;;;;;3.73;3.00;;;26.10;99.90;;;;;;5091081;28;20497;-48
2022/06/30 11:54:16;;;;;;;5.40;3.00;;;26.20;99.90;;;;;;5090926;28;20440;-48
2022/06/30 11:56:48;;;;;;;7.20;3.13;;;26.20;99.90;;;;;;5090894;28;20877;-48
2022/06/30 11:59:15;;;;;;;3.83;2.80;;;26.30;99.90;;;;;;5091028;28;20439;-48
2022/06/30 12:01:42;;;;;;;6.43;4.13;;;26.30;99.90;;;;;;5091073;28;20471;-51
2022/06/30 12:04:14;;;;;;;12.37;3.97;;;26.30;99.90;;;;;;5090729;28;20932;-50
2022/06/30 12:06:41;;;;;;;7.30;3.37;;;26.50;99.90;;;;;;5090464;28;20964;-48
2022/06/30 12:09:07;;;;;;;11.07;4.00;;;26.50;99.90;;;;;;5090743;28;20444;-49
2022/06/30 12:11:37;;;;;;;5.73;3.93;;;26.60;99.90;;;;;;5090439;28;20979;-51
2022/06/30 12:14:04;;;;;;;5.73;3.60;;;26.50;99.90;;;;;;5090737;28;20936;-47
2022/06/30 12:16:31;;;;;;;4.33;3.23;;;26.60;99.90;;;;;;5091077;28;20487;-49
2022/06/30 12:18:58;;;;;;;4.43;2.73;;;26.50;99.90;;;;;;5090550;28;20432;-47
2022/06/30 12:21:25;;;;;;;5.27;3.90;;;26.50;99.90;;;;;;5090430;28;20464;-51
2022/06/30 12:23:52;;;;;;;6.13;3.27;;;26.50;99.90;;;;;;5090443;28;20910;-48
2022/06/30 12:26:20;;;;;;;3.70;2.93;;;26.60;99.90;;;;;;5090732;28;20546;-52
2022/06/30 12:28:52;;;;;;;3.87;3.00;;;26.60;99.90;;;;;;5090119;28;20526;-48
2022/06/30 12:31:27;;;;;;;3.70;3.30;;;26.70;99.90;;;;;;5090777;28;20449;-47
2022/06/30 12:33:55;;;;;;;3.70;3.40;;;26.70;99.90;;;;;;5090248;28;20872;-51
2022/06/30 12:36:23;;;;;;;4.10;3.50;;;26.70;99.90;;;;;;5090383;28;20471;-48
2022/06/30 12:38:50;;;;;;;6.50;3.53;;;26.80;99.90;;;;;;5090212;28;20436;-47
2022/06/30 12:41:17;;;;;;;8.40;3.73;;;26.80;99.90;;;;;;5090137;28;20482;-49
2022/06/30 12:43:46;;;;;;;4.20;3.47;;;26.80;99.90;;;;;;5089998;28;20559;-51
2022/06/30 12:46:16;;;;;;;3.43;3.03;;;26.90;99.90;;;;;;5089976;28;20892;-50
2022/06/30 12:48:47;;;;;;;6.57;3.67;;;26.90;99.90;;;;;;5090114;28;20895;-48
2022/06/30 12:51:17;;;;;;;3.83;3.30;;;27.00;99.90;;;;;;5090203;28;20484;-53
2022/06/30 12:53:46;;;;;;;7.23;4.63;;;27.00;99.90;;;;;;5090059;28;20504;-48
2022/06/30 12:56:17;;;;;;;5.63;4.40;;;27.00;99.90;;;;;;5089883;28;20468;-48
2022/06/30 12:58:53;;;;;;;4.57;3.90;;;27.00;99.90;;;;;;5089992;28;20458;-48
2022/06/30 13:01:23;;;;;;;5.17;4.20;;;27.10;99.90;;;;;;5089945;28;20449;-48
2022/06/30 13:04:01;;;;;;;4.10;3.70;;;27.10;99.90;;;;;;5090165;28;20503;-50
2022/06/30 13:06:30;;;;;;;5.93;4.23;;;27.00;99.90;;;;;;5090163;28;20506;-53
2022/06/30 13:08:57;;;;;;;7.33;4.53;;;26.90;99.90;;;;;;5090004;28;20880;-48
2022/06/30 13:11:26;;;;;;;5.27;4.20;;;26.90;99.90;;;;;;5089927;28;20529;-48
2022/06/30 13:13:54;;;;;;;6.80;4.93;;;27.00;99.90;;;;;;5090430;28;20474;-49
2022/06/30 13:16:23;;;;;;;5.10;4.43;;;27.00;99.90;;;;;;5090125;28;20492;-48